sensor_id;sensor_type;location;lat;lon;timestamp;pressure;altitude;pressure_sealevel;temperature;humidity
56689;BME280;42565;53.342;-1.534;2023-04-01T00:00:46;97426.74;;;8.52;78.01
56689;BME280;42565;53.342;-1.534;2023-04-01T00:03:12;97428.76;;;8.73;76.19
56689;BME280;42565;53.342;-1.534;2023-04-01T00:05:39;97431.69;;;7.87;80.53
56689;BME280;42565;53.342;-1.534;2023-04-01T00:08:07;97435.95;;;8.03;78.00
56689;BME280;42565;53.342;-1.534;2023-04-01T00:10:33;97436.96;;;8.67;76.87
56689;BME280;42565;53.342;-1.534;2023-04-01T00:13:00;97438.66;;;8.47;76.33
56689;BME280;42565;53.342;-1.534;2023-04-01T00:15:28;97447.97;;;7.80;78.72
56689;BME280;42565;53.342;-1.534;2023-04-01T00:17:55;97447.85;;;8.19;77.14
56689;BME280;42565;53.342;-1.534;2023-04-01T00:20:25;97447.93;;;8.43;76.39
56689;BME280;42565;53.342;-1.534;2023-04-01T00:22:52;97454.41;;;8.83;75.16
56689;BME280;42565;53.342;-1.534;2023-04-01T00:25:19;97453.75;;;8.46;75.03
56689;BME280;42565;53.342;-1.534;2023-04-01T00:27:46;97455.01;;;7.94;77.69
56689;BME280;42565;53.342;-1.534;2023-04-01T00:30:14;97456.81;;;7.99;78.12
56689;BME280;42565;53.342;-1.534;2023-04-01T00:32:41;97455.26;;;8.50;76.07
56689;BME280;42565;53.342;-1.534;2023-04-01T00:35:08;97462.79;;;8.13;76.54
56689;BME280;42565;53.342;-1.534;2023-04-01T00:37:36;97465.96;;;8.62;75.89
56689;BME280;42565;53.342;-1.534;2023-04-01T00:40:19;97465.69;;;8.61;74.70
56689;BME280;42565;53.342;-1.534;2023-04-01T00:42:49;97472.13;;;8.63;74.62
56689;BME280;42565;53.342;-1.534;2023-04-01T00:45:27;97471.34;;;8.91;73.62
56689;BME280;42565;53.342;-1.534;2023-04-01T00:47:56;97478.51;;;8.36;74.47
56689;BME280;42565;53.342;-1.534;2023-04-01T00:50:26;97479.31;;;8.71;74.63
56689;BME280;42565;53.342;-1.534;2023-04-01T00:52:55;97479.11;;;8.64;75.34
56689;BME280;42565;53.342;-1.534;2023-04-01T00:55:23;97478.50;;;8.61;75.15
56689;BME280;42565;53.342;-1.534;2023-04-01T00:57:51;97479.21;;;8.09;75.62
56689;BME280;42565;53.342;-1.534;2023-04-01T01:00:20;97476.51;;;8.23;75.86
56689;BME280;42565;53.342;-1.534;2023-04-01T01:02:50;97476.00;;;8.14;77.04
56689;BME280;42565;53.342;-1.534;2023-04-01T01:05:21;97476.50;;;8.11;76.77
56689;BME280;42565;53.342;-1.534;2023-04-01T01:08:01;97476.48;;;7.96;76.20
56689;BME280;42565;53.342;-1.534;2023-04-01T01:10:32;97479.54;;;7.91;75.95
56689;BME280;42565;53.342;-1.534;2023-04-01T01:13:07;97482.20;;;7.68;75.59
56689;BME280;42565;53.342;-1.534;2023-04-01T01:15:39;97484.93;;;8.09;75.05
56689;BME280;42565;53.342;-1.534;2023-04-01T01:18:16;97486.40;;;8.35;74.83
56689;BME280;42565;53.342;-1.534;2023-04-01T01:21:03;97490.60;;;8.20;75.39
56689;BME280;42565;53.342;-1.534;2023-04-01T01:23:50;97495.89;;;8.02;76.52
56689;BME280;42565;53.342;-1.534;2023-04-01T01:26:38;97498.96;;;8.07;75.21
56689;BME280;42565;53.342;-1.534;2023-04-01T01:29:16;97503.06;;;8.54;74.02
56689;BME280;42565;53.342;-1.534;2023-04-01T01:31:49;97504.37;;;8.89;72.94
56689;BME280;42565;53.342;-1.534;2023-04-01T01:34:22;97504.21;;;8.62;73.37
56689;BME280;42565;53.342;-1.534;2023-04-01T01:36:55;97507.62;;;8.05;75.52
56689;BME280;42565;53.342;-1.534;2023-04-01T01:39:26;97514.70;;;7.30;78.10
56689;BME280;42565;53.342;-1.534;2023-04-01T01:41:56;97519.11;;;7.79;77.62
56689;BME280;42565;53.342;-1.534;2023-04-01T01:44:26;97516.89;;;8.00;75.93
56689;BME280;42565;53.342;-1.534;2023-04-01T01:46:56;97519.70;;;8.41;74.78
56689;BME280;42565;53.342;-1.534;2023-04-01T01:49:24;97522.25;;;8.21;75.20
56689;BME280;42565;53.342;-1.534;2023-04-01T01:51:52;97519.04;;;8.27;75.66
56689;BME280;42565;53.342;-1.534;2023-04-01T01:54:19;97529.78;;;7.87;75.74
56689;BME280;42565;53.342;-1.534;2023-04-01T01:56:48;97532.51;;;8.54;74.23
56689;BME280;42565;53.342;-1.534;2023-04-01T01:59:18;97535.73;;;8.02;74.93
56689;BME280;42565;53.342;-1.534;2023-04-01T02:01:50;97537.23;;;8.74;74.06
56689;BME280;42565;53.342;-1.534;2023-04-01T02:04:18;97538.22;;;8.48;74.19
56689;BME280;42565;53.342;-1.534;2023-04-01T02:06:49;97541.03;;;8.66;73.22
56689;BME280;42565;53.342;-1.534;2023-04-01T02:09:18;97546.48;;;8.50;72.71
56689;BME280;42565;53.342;-1.534;2023-04-01T02:11:48;97552.15;;;8.31;72.93
56689;BME280;42565;53.342;-1.534;2023-04-01T02:14:18;97562.81;;;8.12;74.03
56689;BME280;42565;53.342;-1.534;2023-04-01T02:16:51;97564.17;;;7.85;75.04
56689;BME280;42565;53.342;-1.534;2023-04-01T02:19:21;97560.86;;;8.36;73.26
56689;BME280;42565;53.342;-1.534;2023-04-01T02:21:50;97568.75;;;8.27;73.30
56689;BME280;42565;53.342;-1.534;2023-04-01T02:24:21;97572.99;;;8.19;72.83
56689;BME280;42565;53.342;-1.534;2023-04-01T02:26:51;97577.72;;;8.54;71.97
56689;BME280;42565;53.342;-1.534;2023-04-01T02:29:21;97579.77;;;8.01;72.75
56689;BME280;42565;53.342;-1.534;2023-04-01T02:31:49;97584.36;;;8.23;72.99
56689;BME280;42565;53.342;-1.534;2023-04-01T02:34:18;97578.05;;;8.29;71.69
56689;BME280;42565;53.342;-1.534;2023-04-01T02:36:47;97584.29;;;8.25;72.55
56689;BME280;42565;53.342;-1.534;2023-04-01T02:39:14;97584.02;;;8.36;71.67
56689;BME280;42565;53.342;-1.534;2023-04-01T02:41:43;97589.03;;;7.91;72.29
56689;BME280;42565;53.342;-1.534;2023-04-01T02:44:12;97591.18;;;8.05;72.50
56689;BME280;42565;53.342;-1.534;2023-04-01T02:46:40;97596.32;;;8.25;72.53
56689;BME280;42565;53.342;-1.534;2023-04-01T02:49:07;97597.62;;;8.26;72.12
56689;BME280;42565;53.342;-1.534;2023-04-01T02:51:35;97594.90;;;7.96;72.91
56689;BME280;42565;53.342;-1.534;2023-04-01T02:54:02;97598.54;;;8.23;72.53
56689;BME280;42565;53.342;-1.534;2023-04-01T02:56:30;97601.25;;;8.21;72.41
56689;BME280;42565;53.342;-1.534;2023-04-01T02:58:56;97601.53;;;7.89;73.12
56689;BME280;42565;53.342;-1.534;2023-04-01T03:01:23;97596.72;;;8.06;72.46
56689;BME280;42565;53.342;-1.534;2023-04-01T03:03:51;97596.72;;;8.12;71.81
56689;BME280;42565;53.342;-1.534;2023-04-01T03:06:18;97594.93;;;7.06;74.35
56689;BME280;42565;53.342;-1.534;2023-04-01T03:08:45;97608.26;;;7.45;72.93
56689;BME280;42565;53.342;-1.534;2023-04-01T03:11:13;97606.99;;;7.69;71.02
56689;BME280;42565;53.342;-1.534;2023-04-01T03:13:40;97602.79;;;7.60;71.62
56689;BME280;42565;53.342;-1.534;2023-04-01T03:16:08;97600.85;;;7.16;72.67
56689;BME280;42565;53.342;-1.534;2023-04-01T03:18:35;97603.51;;;7.02;72.40
56689;BME280;42565;53.342;-1.534;2023-04-01T03:21:21;97616.77;;;7.84;71.08
56689;BME280;42565;53.342;-1.534;2023-04-01T03:23:52;97618.72;;;7.57;70.27
56689;BME280;42565;53.342;-1.534;2023-04-01T03:26:19;97621.56;;;7.29;70.15
56689;BME280;42565;53.342;-1.534;2023-04-01T03:28:47;97618.00;;;7.95;68.47
56689;BME280;42565;53.342;-1.534;2023-04-01T03:31:33;97619.03;;;8.11;68.11
56689;BME280;42565;53.342;-1.534;2023-04-01T03:34:00;97620.47;;;8.02;68.59
56689;BME280;42565;53.342;-1.534;2023-04-01T03:36:27;97626.03;;;8.80;66.96
56689;BME280;42565;53.342;-1.534;2023-04-01T03:38:54;97631.44;;;8.97;66.88
56689;BME280;42565;53.342;-1.534;2023-04-01T03:41:21;97637.51;;;8.44;68.09
56689;BME280;42565;53.342;-1.534;2023-04-01T03:43:49;97640.44;;;8.11;68.94
56689;BME280;42565;53.342;-1.534;2023-04-01T03:46:17;97639.27;;;7.69;69.88
56689;BME280;42565;53.342;-1.534;2023-04-01T03:48:44;97638.12;;;7.57;71.28
56689;BME280;42565;53.342;-1.534;2023-04-01T03:51:11;97638.27;;;7.60;70.96
56689;BME280;42565;53.342;-1.534;2023-04-01T03:53:37;97639.02;;;7.08;72.39
56689;BME280;42565;53.342;-1.534;2023-04-01T03:56:05;97644.24;;;7.31;72.13
56689;BME280;42565;53.342;-1.534;2023-04-01T03:58:33;97644.16;;;7.33;71.36
56689;BME280;42565;53.342;-1.534;2023-04-01T04:01:00;97645.12;;;7.30;71.94
56689;BME280;42565;53.342;-1.534;2023-04-01T04:03:27;97654.10;;;7.51;71.61
56689;BME280;42565;53.342;-1.534;2023-04-01T04:05:55;97656.37;;;7.25;72.40
56689;BME280;42565;53.342;-1.534;2023-04-01T04:08:21;97660.87;;;7.06;72.64
56689;BME280;42565;53.342;-1.534;2023-04-01T04:10:54;97663.61;;;7.49;72.97
56689;BME280;42565;53.342;-1.534;2023-04-01T04:13:22;97663.67;;;6.88;73.88
56689;BME280;42565;53.342;-1.534;2023-04-01T04:15:49;97665.17;;;7.01;74.32
56689;BME280;42565;53.342;-1.534;2023-04-01T04:18:16;97670.34;;;6.55;75.89
56689;BME280;42565;53.342;-1.534;2023-04-01T04:20:44;97666.57;;;6.04;76.98
56689;BME280;42565;53.342;-1.534;2023-04-01T04:23:11;97673.45;;;6.45;76.00
56689;BME280;42565;53.342;-1.534;2023-04-01T04:25:38;97670.41;;;6.62;75.52
56689;BME280;42565;53.342;-1.534;2023-04-01T04:28:05;97674.25;;;6.44;75.23
56689;BME280;42565;53.342;-1.534;2023-04-01T04:30:32;97673.92;;;6.60;76.18
56689;BME280;42565;53.342;-1.534;2023-04-01T04:32:59;97678.45;;;6.51;76.36
56689;BME280;42565;53.342;-1.534;2023-04-01T04:35:26;97680.14;;;6.09;77.19
56689;BME280;42565;53.342;-1.534;2023-04-01T04:37:53;97683.99;;;6.05;78.05
56689;BME280;42565;53.342;-1.534;2023-04-01T04:40:20;97679.96;;;6.11;76.80
56689;BME280;42565;53.342;-1.534;2023-04-01T04:42:47;97685.59;;;5.99;77.89
56689;BME280;42565;53.342;-1.534;2023-04-01T04:45:14;97689.07;;;5.52;79.50
56689;BME280;42565;53.342;-1.534;2023-04-01T04:47:41;97692.25;;;5.58;80.37
56689;BME280;42565;53.342;-1.534;2023-04-01T04:50:09;97688.27;;;5.60;79.28
56689;BME280;42565;53.342;-1.534;2023-04-01T04:52:36;97689.04;;;5.85;78.69
56689;BME280;42565;53.342;-1.534;2023-04-01T04:55:03;97689.57;;;6.21;77.67
56689;BME280;42565;53.342;-1.534;2023-04-01T04:57:31;97696.36;;;6.23;76.69
56689;BME280;42565;53.342;-1.534;2023-04-01T04:59:58;97700.61;;;6.69;75.20
56689;BME280;42565;53.342;-1.534;2023-04-01T05:02:25;97703.17;;;6.41;77.66
56689;BME280;42565;53.342;-1.534;2023-04-01T05:04:52;97713.45;;;6.54;76.28
56689;BME280;42565;53.342;-1.534;2023-04-01T05:07:18;97721.88;;;6.78;74.97
56689;BME280;42565;53.342;-1.534;2023-04-01T05:09:45;97723.53;;;6.70;75.46
56689;BME280;42565;53.342;-1.534;2023-04-01T05:12:12;97723.85;;;7.22;74.21
56689;BME280;42565;53.342;-1.534;2023-04-01T05:14:39;97724.92;;;7.18;73.58
56689;BME280;42565;53.342;-1.534;2023-04-01T05:17:08;97721.61;;;6.84;72.44
56689;BME280;42565;53.342;-1.534;2023-04-01T05:19:36;97735.66;;;6.37;75.73
56689;BME280;42565;53.342;-1.534;2023-04-01T05:22:04;97738.34;;;6.37;75.42
56689;BME280;42565;53.342;-1.534;2023-04-01T05:24:32;97742.38;;;6.28;76.40
56689;BME280;42565;53.342;-1.534;2023-04-01T05:26:59;97749.63;;;6.39;75.21
56689;BME280;42565;53.342;-1.534;2023-04-01T05:29:27;97755.22;;;6.12;76.96
56689;BME280;42565;53.342;-1.534;2023-04-01T05:31:54;97764.15;;;6.24;76.76
56689;BME280;42565;53.342;-1.534;2023-04-01T05:34:20;97767.20;;;6.33;75.55
56689;BME280;42565;53.342;-1.534;2023-04-01T05:36:47;97768.32;;;6.82;74.45
56689;BME280;42565;53.342;-1.534;2023-04-01T05:39:14;97769.05;;;6.95;73.84
56689;BME280;42565;53.342;-1.534;2023-04-01T05:41:41;97773.78;;;6.98;73.78
56689;BME280;42565;53.342;-1.534;2023-04-01T05:44:11;97778.88;;;6.83;72.90
56689;BME280;42565;53.342;-1.534;2023-04-01T05:46:39;97783.95;;;7.56;72.51
56689;BME280;42565;53.342;-1.534;2023-04-01T05:49:05;97785.02;;;7.28;71.85
56689;BME280;42565;53.342;-1.534;2023-04-01T05:51:33;97788.05;;;7.37;72.04
56689;BME280;42565;53.342;-1.534;2023-04-01T05:54:00;97794.63;;;7.00;73.63
56689;BME280;42565;53.342;-1.534;2023-04-01T05:56:26;97799.67;;;6.94;73.39
56689;BME280;42565;53.342;-1.534;2023-04-01T05:58:54;97798.95;;;7.13;72.38
56689;BME280;42565;53.342;-1.534;2023-04-01T06:01:21;97800.48;;;7.36;71.22
56689;BME280;42565;53.342;-1.534;2023-04-01T06:03:48;97806.59;;;6.45;74.16
56689;BME280;42565;53.342;-1.534;2023-04-01T06:06:17;97805.27;;;7.01;72.80
56689;BME280;42565;53.342;-1.534;2023-04-01T06:08:46;97808.59;;;7.00;71.50
56689;BME280;42565;53.342;-1.534;2023-04-01T06:11:22;97813.53;;;7.15;70.82
56689;BME280;42565;53.342;-1.534;2023-04-01T06:14:10;97816.41;;;7.88;68.38
56689;BME280;42565;53.342;-1.534;2023-04-01T06:16:53;97819.08;;;8.10;68.37
56689;BME280;42565;53.342;-1.534;2023-04-01T06:19:32;97820.08;;;7.76;68.17
56689;BME280;42565;53.342;-1.534;2023-04-01T06:22:13;97820.50;;;7.92;68.18
56689;BME280;42565;53.342;-1.534;2023-04-01T06:25:16;97829.58;;;7.52;69.51
56689;BME280;42565;53.342;-1.534;2023-04-01T06:27:54;97825.61;;;7.03;70.24
56689;BME280;42565;53.342;-1.534;2023-04-01T06:30:34;97824.18;;;7.25;70.07
56689;BME280;42565;53.342;-1.534;2023-04-01T06:33:24;97827.42;;;7.35;69.67
56689;BME280;42565;53.342;-1.534;2023-04-01T06:36:07;97829.89;;;7.62;69.93
56689;BME280;42565;53.342;-1.534;2023-04-01T06:38:48;97829.06;;;7.46;70.07
56689;BME280;42565;53.342;-1.534;2023-04-01T06:41:44;97832.41;;;7.24;69.26
56689;BME280;42565;53.342;-1.534;2023-04-01T06:44:22;97838.83;;;7.03;70.77
56689;BME280;42565;53.342;-1.534;2023-04-01T06:46:57;97846.43;;;6.95;70.40
56689;BME280;42565;53.342;-1.534;2023-04-01T06:49:37;97845.01;;;6.59;72.44
56689;BME280;42565;53.342;-1.534;2023-04-01T06:52:16;97849.00;;;6.89;72.88
56689;BME280;42565;53.342;-1.534;2023-04-01T06:54:49;97855.69;;;7.17;71.50
56689;BME280;42565;53.342;-1.534;2023-04-01T06:57:23;97863.73;;;7.32;70.27
56689;BME280;42565;53.342;-1.534;2023-04-01T06:59:57;97869.60;;;7.71;69.46
56689;BME280;42565;53.342;-1.534;2023-04-01T07:02:33;97874.59;;;7.76;69.04
56689;BME280;42565;53.342;-1.534;2023-04-01T07:05:05;97874.46;;;8.10;69.20
56689;BME280;42565;53.342;-1.534;2023-04-01T07:07:36;97873.94;;;8.23;68.08
56689;BME280;42565;53.342;-1.534;2023-04-01T07:10:11;97875.61;;;8.40;67.82
56689;BME280;42565;53.342;-1.534;2023-04-01T07:12:44;97878.36;;;7.92;68.81
56689;BME280;42565;53.342;-1.534;2023-04-01T07:15:18;97877.90;;;7.69;67.83
56689;BME280;42565;53.342;-1.534;2023-04-01T07:17:50;97876.31;;;7.11;69.97
56689;BME280;42565;53.342;-1.534;2023-04-01T07:20:24;97879.85;;;7.16;69.21
56689;BME280;42565;53.342;-1.534;2023-04-01T07:22:56;97885.79;;;7.73;69.38
56689;BME280;42565;53.342;-1.534;2023-04-01T07:25:28;97891.08;;;7.48;68.61
56689;BME280;42565;53.342;-1.534;2023-04-01T07:28:01;97893.22;;;7.85;68.13
56689;BME280;42565;53.342;-1.534;2023-04-01T07:30:39;97892.67;;;8.24;67.51
56689;BME280;42565;53.342;-1.534;2023-04-01T07:33:15;97897.98;;;8.16;67.11
56689;BME280;42565;53.342;-1.534;2023-04-01T07:35:46;97901.31;;;7.61;69.18
56689;BME280;42565;53.342;-1.534;2023-04-01T07:38:23;97901.13;;;7.49;69.43
56689;BME280;42565;53.342;-1.534;2023-04-01T07:40:58;97905.19;;;7.93;68.36
56689;BME280;42565;53.342;-1.534;2023-04-01T07:43:43;97911.55;;;8.15;68.50
56689;BME280;42565;53.342;-1.534;2023-04-01T07:46:27;97911.35;;;8.25;67.19
56689;BME280;42565;53.342;-1.534;2023-04-01T07:49:01;97916.80;;;8.38;66.44
56689;BME280;42565;53.342;-1.534;2023-04-01T07:51:37;97924.19;;;8.22;67.96
56689;BME280;42565;53.342;-1.534;2023-04-01T07:54:11;97928.38;;;8.52;66.77
56689;BME280;42565;53.342;-1.534;2023-04-01T07:56:45;97932.28;;;8.36;67.41
56689;BME280;42565;53.342;-1.534;2023-04-01T07:59:20;97935.01;;;8.33;67.76
56689;BME280;42565;53.342;-1.534;2023-04-01T08:01:57;97933.04;;;8.50;67.19
56689;BME280;42565;53.342;-1.534;2023-04-01T08:04:38;97933.26;;;8.42;67.22
56689;BME280;42565;53.342;-1.534;2023-04-01T08:07:11;97940.57;;;8.18;67.45
56689;BME280;42565;53.342;-1.534;2023-04-01T08:09:44;97950.35;;;7.83;68.18
56689;BME280;42565;53.342;-1.534;2023-04-01T08:12:26;97955.46;;;7.76;69.89
56689;BME280;42565;53.342;-1.534;2023-04-01T08:15:06;97960.77;;;7.29;71.05
56689;BME280;42565;53.342;-1.534;2023-04-01T08:17:43;97958.70;;;7.85;70.24
56689;BME280;42565;53.342;-1.534;2023-04-01T08:20:23;97966.78;;;7.52;71.29
56689;BME280;42565;53.342;-1.534;2023-04-01T08:22:57;97973.55;;;7.51;72.43
56689;BME280;42565;53.342;-1.534;2023-04-01T08:25:29;97976.90;;;7.59;70.77
56689;BME280;42565;53.342;-1.534;2023-04-01T08:28:00;97977.50;;;8.06;69.83
56689;BME280;42565;53.342;-1.534;2023-04-01T08:30:38;97981.93;;;8.54;70.25
56689;BME280;42565;53.342;-1.534;2023-04-01T08:33:15;97986.87;;;8.74;67.92
56689;BME280;42565;53.342;-1.534;2023-04-01T08:35:47;97983.68;;;8.82;67.70
56689;BME280;42565;53.342;-1.534;2023-04-01T08:38:21;97990.09;;;8.45;67.39
56689;BME280;42565;53.342;-1.534;2023-04-01T08:40:58;97989.80;;;8.74;67.37
56689;BME280;42565;53.342;-1.534;2023-04-01T08:43:41;97994.89;;;9.34;65.72
56689;BME280;42565;53.342;-1.534;2023-04-01T08:46:25;97999.21;;;9.23;65.77
56689;BME280;42565;53.342;-1.534;2023-04-01T08:49:08;98003.98;;;9.56;64.69
56689;BME280;42565;53.342;-1.534;2023-04-01T08:52:00;98006.12;;;9.85;63.56
56689;BME280;42565;53.342;-1.534;2023-04-01T08:54:43;98008.93;;;8.98;66.09
56689;BME280;42565;53.342;-1.534;2023-04-01T08:57:21;98014.88;;;8.41;65.35
56689;BME280;42565;53.342;-1.534;2023-04-01T09:00:00;98018.35;;;9.16;64.90
56689;BME280;42565;53.342;-1.534;2023-04-01T09:04:59;98023.97;;;8.51;66.00
56689;BME280;42565;53.342;-1.534;2023-04-01T09:07:40;98027.25;;;8.57;66.08
56689;BME280;42565;53.342;-1.534;2023-04-01T09:10:30;98029.07;;;8.54;64.92
56689;BME280;42565;53.342;-1.534;2023-04-01T09:13:16;98036.15;;;8.06;65.78
56689;BME280;42565;53.342;-1.534;2023-04-01T09:16:00;98032.57;;;7.93;67.00
56689;BME280;42565;53.342;-1.534;2023-04-01T09:18:46;98031.84;;;8.49;66.81
56689;BME280;42565;53.342;-1.534;2023-04-01T09:21:24;98039.31;;;8.25;67.84
56689;BME280;42565;53.342;-1.534;2023-04-01T09:24:23;98041.58;;;8.17;66.94
56689;BME280;42565;53.342;-1.534;2023-04-01T09:27:03;98044.58;;;8.55;67.49
56689;BME280;42565;53.342;-1.534;2023-04-01T09:29:57;98045.29;;;8.51;67.96
56689;BME280;42565;53.342;-1.534;2023-04-01T09:32:40;98054.56;;;8.27;68.20
56689;BME280;42565;53.342;-1.534;2023-04-01T09:35:21;98050.90;;;8.70;66.91
56689;BME280;42565;53.342;-1.534;2023-04-01T09:37:54;98054.79;;;8.30;66.46
56689;BME280;42565;53.342;-1.534;2023-04-01T09:40:34;98052.94;;;9.30;66.88
56689;BME280;42565;53.342;-1.534;2023-04-01T09:43:18;98055.10;;;9.41;66.46
56689;BME280;42565;53.342;-1.534;2023-04-01T09:45:58;98060.92;;;9.59;62.78
56689;BME280;42565;53.342;-1.534;2023-04-01T09:48:44;98064.79;;;10.02;60.30
56689;BME280;42565;53.342;-1.534;2023-04-01T09:51:23;98064.90;;;9.94;60.33
56689;BME280;42565;53.342;-1.534;2023-04-01T09:54:04;98070.60;;;10.15;60.49
56689;BME280;42565;53.342;-1.534;2023-04-01T09:56:59;98079.27;;;10.10;60.41
56689;BME280;42565;53.342;-1.534;2023-04-01T10:00:52;98080.50;;;9.48;62.08
56689;BME280;42565;53.342;-1.534;2023-04-01T10:10:45;98099.28;;;9.76;61.18
56689;BME280;42565;53.342;-1.534;2023-04-01T10:13:32;98102.64;;;7.99;63.29
56689;BME280;42565;53.342;-1.534;2023-04-01T10:16:25;98102.04;;;9.41;62.08
56689;BME280;42565;53.342;-1.534;2023-04-01T10:19:08;98109.70;;;9.76;62.27
56689;BME280;42565;53.342;-1.534;2023-04-01T10:21:55;98110.33;;;9.32;59.99
56689;BME280;42565;53.342;-1.534;2023-04-01T10:24:42;98120.74;;;9.31;61.31
56689;BME280;42565;53.342;-1.534;2023-04-01T10:27:43;98124.23;;;8.42;61.23
56689;BME280;42565;53.342;-1.534;2023-04-01T10:30:30;98127.85;;;8.66;60.06
56689;BME280;42565;53.342;-1.534;2023-04-01T10:33:19;98130.31;;;9.51;59.74
56689;BME280;42565;53.342;-1.534;2023-04-01T10:36:13;98133.08;;;10.04;59.50
56689;BME280;42565;53.342;-1.534;2023-04-01T10:39:03;98136.49;;;9.77;58.03
56689;BME280;42565;53.342;-1.534;2023-04-01T10:44:05;98150.49;;;9.96;58.51
56689;BME280;42565;53.342;-1.534;2023-04-01T10:49:18;98157.29;;;10.30;58.67
56689;BME280;42565;53.342;-1.534;2023-04-01T10:54:19;98164.14;;;10.46;58.72
56689;BME280;42565;53.342;-1.534;2023-04-01T10:56:54;98168.05;;;9.28;59.37
56689;BME280;42565;53.342;-1.534;2023-04-01T11:00:10;98166.65;;;9.52;59.49
56689;BME280;42565;53.342;-1.534;2023-04-01T11:03:06;98172.99;;;9.79;58.79
56689;BME280;42565;53.342;-1.534;2023-04-01T11:06:05;98175.25;;;9.38;59.14
56689;BME280;42565;53.342;-1.534;2023-04-01T11:11:55;98182.97;;;9.97;59.90
56689;BME280;42565;53.342;-1.534;2023-04-01T11:17:48;98191.27;;;10.31;60.20
56689;BME280;42565;53.342;-1.534;2023-04-01T11:20:42;98198.15;;;9.54;59.01
56689;BME280;42565;53.342;-1.534;2023-04-01T11:23:22;98202.77;;;9.01;61.72
56689;BME280;42565;53.342;-1.534;2023-04-01T11:26:02;98205.71;;;9.92;60.01
56689;BME280;42565;53.342;-1.534;2023-04-01T11:28:49;98209.06;;;9.72;59.79
56689;BME280;42565;53.342;-1.534;2023-04-01T11:31:29;98217.65;;;9.46;60.18
56689;BME280;42565;53.342;-1.534;2023-04-01T11:34:05;98220.46;;;9.34;60.23
56689;BME280;42565;53.342;-1.534;2023-04-01T11:36:47;98230.17;;;9.40;60.08
56689;BME280;42565;53.342;-1.534;2023-04-01T11:39:27;98231.75;;;9.42;59.79
56689;BME280;42565;53.342;-1.534;2023-04-01T11:42:06;98236.80;;;9.49;58.50
56689;BME280;42565;53.342;-1.534;2023-04-01T11:44:43;98236.67;;;10.12;58.75
56689;BME280;42565;53.342;-1.534;2023-04-01T11:47:27;98240.03;;;9.90;57.24
56689;BME280;42565;53.342;-1.534;2023-04-01T11:50:12;98246.09;;;9.19;59.44
56689;BME280;42565;53.342;-1.534;2023-04-01T11:52:59;98253.40;;;9.03;61.30
56689;BME280;42565;53.342;-1.534;2023-04-01T11:55:40;98258.64;;;9.21;60.10
56689;BME280;42565;53.342;-1.534;2023-04-01T11:58:23;98261.81;;;9.17;60.64
56689;BME280;42565;53.342;-1.534;2023-04-01T12:01:00;98259.68;;;9.07;60.89
56689;BME280;42565;53.342;-1.534;2023-04-01T12:03:43;98261.90;;;9.67;60.09
56689;BME280;42565;53.342;-1.534;2023-04-01T12:06:16;98265.02;;;10.01;60.41
56689;BME280;42565;53.342;-1.534;2023-04-01T12:08:53;98270.12;;;9.19;61.02
56689;BME280;42565;53.342;-1.534;2023-04-01T12:11:28;98273.18;;;9.51;60.96
56689;BME280;42565;53.342;-1.534;2023-04-01T12:14:02;98278.74;;;9.75;60.05
56689;BME280;42565;53.342;-1.534;2023-04-01T12:16:44;98285.55;;;9.76;59.91
56689;BME280;42565;53.342;-1.534;2023-04-01T12:19:21;98289.56;;;9.72;61.45
56689;BME280;42565;53.342;-1.534;2023-04-01T12:22:03;98291.61;;;9.96;60.01
56689;BME280;42565;53.342;-1.534;2023-04-01T12:24:44;98293.14;;;10.07;57.67
56689;BME280;42565;53.342;-1.534;2023-04-01T12:27:23;98298.89;;;9.80;58.43
56689;BME280;42565;53.342;-1.534;2023-04-01T12:30:10;98299.56;;;10.10;58.19
56689;BME280;42565;53.342;-1.534;2023-04-01T12:32:46;98304.61;;;10.30;58.20
56689;BME280;42565;53.342;-1.534;2023-04-01T12:35:23;98307.80;;;10.05;58.54
56689;BME280;42565;53.342;-1.534;2023-04-01T12:38:07;98312.07;;;9.88;59.31
56689;BME280;42565;53.342;-1.534;2023-04-01T12:40:48;98317.55;;;9.76;60.40
56689;BME280;42565;53.342;-1.534;2023-04-01T12:43:48;98319.02;;;10.15;57.96
56689;BME280;42565;53.342;-1.534;2023-04-01T12:46:25;98317.72;;;10.34;55.88
56689;BME280;42565;53.342;-1.534;2023-04-01T12:49:18;98318.35;;;10.27;55.86
56689;BME280;42565;53.342;-1.534;2023-04-01T12:52:01;98324.55;;;9.88;57.29
56689;BME280;42565;53.342;-1.534;2023-04-01T12:54:49;98328.71;;;9.85;58.34
56689;BME280;42565;53.342;-1.534;2023-04-01T12:57:33;98329.49;;;9.68;58.55
56689;BME280;42565;53.342;-1.534;2023-04-01T13:00:20;98336.07;;;9.37;60.05
56689;BME280;42565;53.342;-1.534;2023-04-01T13:03:01;98338.73;;;9.39;59.86
56689;BME280;42565;53.342;-1.534;2023-04-01T13:06:54;98341.40;;;9.94;60.11
56689;BME280;42565;53.342;-1.534;2023-04-01T13:09:33;98347.84;;;9.69;59.05
56689;BME280;42565;53.342;-1.534;2023-04-01T13:12:21;98350.89;;;10.12;59.47
56689;BME280;42565;53.342;-1.534;2023-04-01T13:15:04;98356.48;;;10.13;59.50
56689;BME280;42565;53.342;-1.534;2023-04-01T13:17:35;98354.90;;;10.46;58.65
56689;BME280;42565;53.342;-1.534;2023-04-01T13:20:18;98358.88;;;10.33;57.97
56689;BME280;42565;53.342;-1.534;2023-04-01T13:23:00;98361.88;;;10.12;58.04
56689;BME280;42565;53.342;-1.534;2023-04-01T13:25:38;98368.18;;;10.23;58.09
56689;BME280;42565;53.342;-1.534;2023-04-01T13:28:12;98369.62;;;10.63;57.83
56689;BME280;42565;53.342;-1.534;2023-04-01T13:30:49;98371.36;;;10.41;57.28
56689;BME280;42565;53.342;-1.534;2023-04-01T13:33:28;98374.80;;;10.36;58.56
56689;BME280;42565;53.342;-1.534;2023-04-01T13:36:09;98378.53;;;10.18;57.30
56689;BME280;42565;53.342;-1.534;2023-04-01T13:38:52;98381.51;;;10.70;56.64
56689;BME280;42565;53.342;-1.534;2023-04-01T13:41:34;98382.07;;;10.87;55.64
56689;BME280;42565;53.342;-1.534;2023-04-01T13:44:11;98389.88;;;11.10;54.43
56689;BME280;42565;53.342;-1.534;2023-04-01T13:46:52;98395.95;;;11.29;53.34
56689;BME280;42565;53.342;-1.534;2023-04-01T13:49:31;98400.82;;;10.94;54.56
56689;BME280;42565;53.342;-1.534;2023-04-01T13:52:11;98411.11;;;10.67;54.24
56689;BME280;42565;53.342;-1.534;2023-04-01T13:54:57;98417.87;;;10.27;55.71
56689;BME280;42565;53.342;-1.534;2023-04-01T13:57:40;98423.36;;;10.35;57.46
56689;BME280;42565;53.342;-1.534;2023-04-01T14:00:26;98426.43;;;10.03;56.57
56689;BME280;42565;53.342;-1.534;2023-04-01T14:03:14;98425.70;;;10.29;56.11
56689;BME280;42565;53.342;-1.534;2023-04-01T14:05:50;98424.97;;;10.36;56.47
56689;BME280;42565;53.342;-1.534;2023-04-01T14:08:33;98429.41;;;10.33;56.65